Time;durP1;ratioP1;P1;durP2;ratioP2;P2;SDS_P1;SDS_P2;PMS_P1;PMS_P2;Temp;Humidity;BMP_temperature;BMP_pressure;BME280_temperature;BME280_humidity;BME280_pressure;Samples;Min_cycle;Max_cycle;Signal;HPM_P1;HPM_P2
2022/04/19 00:05:43;;;;;;;;;;;18.70;46.70;;;;;;20750423;28;19926;-63
2022/04/19 00:15:45;;;;;;;;;;;18.60;46.80;;;;;;20750018;28;19983;-59
2022/04/19 00:25:48;;;;;;;;;;;18.70;46.80;;;;;;20748302;28;19922;-60
2022/04/19 00:35:49;;;;;;;;;;;18.70;46.60;;;;;;20747275;28;19921;-63
2022/04/19 00:45:50;;;;;;;;;;;18.60;46.80;;;;;;20747353;28;19922;-62
2022/04/19 00:55:52;;;;;;;;;;;18.40;47.10;;;;;;20746944;28;19932;-64
2022/04/19 01:05:55;;;;;;;;;;;18.20;48.00;;;;;;20755022;28;19921;-62
2022/04/19 01:15:58;;;;;;;;;;;18.00;49.00;;;;;;20760002;28;19925;-60
2022/04/19 01:26:00;;;;;;;;;;;17.80;49.40;;;;;;20760050;28;19921;-60
2022/04/19 01:36:03;;;;;;;;;;;17.80;49.40;;;;;;20758496;28;20064;-60
2022/04/19 01:46:05;;;;;;;;;;;17.70;49.20;;;;;;20757776;28;20358;-59
2022/04/19 01:56:08;;;;;;;;;;;17.60;49.30;;;;;;20756839;28;20269;-59
2022/04/19 02:06:11;;;;;;;;;;;17.40;49.60;;;;;;20756205;28;20376;-58
2022/04/19 02:16:13;;;;;;;;;;;17.40;50.30;;;;;;20754927;28;19944;-60
2022/04/19 02:26:15;;;;;;;;;;;17.20;52.00;;;;;;20758035;28;19922;-57
2022/04/19 02:36:17;;;;;;;;;;;16.90;52.10;;;;;;20752113;28;19968;-60
2022/04/19 02:46:19;;;;;;;;;;;16.90;52.20;;;;;;20752637;28;19930;-62
2022/04/19 02:56:21;;;;;;;;;;;16.90;52.90;;;;;;20753316;28;20394;-62
2022/04/19 03:06:23;;;;;;;;;;;16.40;53.40;;;;;;20751196;28;19925;-59
2022/04/19 03:16:26;;;;;;;;;;;16.10;54.60;;;;;;20750193;28;19921;-58
2022/04/19 03:36:49;;;;;;;;;;;15.90;55.10;;;;;;20749168;28;19984;-57
2022/04/19 03:47:09;;;;;;;;;;;16.10;54.90;;;;;;20748161;28;19921;-60
2022/04/19 03:57:11;;;;;;;;;;;16.10;55.30;;;;;;20748069;28;20068;-62
2022/04/19 04:07:13;;;;;;;;;;;15.40;56.50;;;;;;20747855;28;20421;-61
2022/04/19 04:17:18;;;;;;;;;;;15.30;56.90;;;;;;20747877;28;19921;-61
2022/04/19 04:27:19;;;;;;;;;;;15.20;58.00;;;;;;20747546;28;20020;-61
2022/04/19 04:37:22;;;;;;;;;;;15.10;58.50;;;;;;20751851;28;19991;-62
2022/04/19 04:57:43;;;;;;;;;;;14.70;59.70;;;;;;20762857;28;19921;-60
2022/04/19 05:07:46;;;;;;;;;;;14.60;60.10;;;;;;20762206;28;19944;-66
2022/04/19 05:17:47;;;;;;;;;;;14.50;61.20;;;;;;20759948;28;19964;-59
2022/04/19 05:27:49;;;;;;;;;;;14.50;61.40;;;;;;20760050;28;20360;-61
2022/04/19 05:37:51;;;;;;;;;;;14.40;61.80;;;;;;20757686;28;19921;-65
2022/04/19 05:47:53;;;;;;;;;;;;;;;;;;20756200;28;19987;-59
2022/04/19 05:57:54;;;;;;;;;;;15.50;59.10;;;;;;20756689;28;19921;-63
2022/04/19 06:07:55;;;;;;;;;;;14.60;61.00;;;;;;20755585;28;19965;-63
2022/04/19 06:17:57;;;;;;;;;;;14.50;61.30;;;;;;20756307;28;20431;-59
2022/04/19 06:27:59;;;;;;;;;;;14.40;61.70;;;;;;20755202;28;19956;-62
2022/04/19 06:38:02;;;;;;;;;;;14.40;61.30;;;;;;20752647;28;19964;-58
2022/04/19 06:48:05;;;;;;;;;;;14.40;61.40;;;;;;20752026;28;20012;-59
2022/04/19 06:58:06;;;;;;;;;;;14.40;61.30;;;;;;20751944;28;19972;-62
2022/04/19 07:08:09;;;;;;;;;;;14.50;61.10;;;;;;20751353;28;19956;-62
2022/04/19 07:18:11;;;;;;;;;;;14.70;60.60;;;;;;20751073;28;19921;-61
2022/04/19 07:28:14;;;;;;;;;;;15.10;59.80;;;;;;20750568;28;19925;-65
2022/04/19 07:38:16;;;;;;;;;;;15.70;58.60;;;;;;20748328;28;19921;-60
2022/04/19 07:48:18;;;;;;;;;;;16.10;57.30;;;;;;20747774;28;19976;-60
2022/04/19 07:58:20;;;;;;;;;;;16.60;56.00;;;;;;20746438;28;19928;-58
2022/04/19 08:08:22;;;;;;;;;;;17.00;55.10;;;;;;20747548;28;19922;-59
2022/04/19 08:18:23;;;;;;;;;;;17.40;53.90;;;;;;20761996;28;19921;-65
2022/04/19 08:28:25;;;;;;;;;;;17.20;54.40;;;;;;20764506;28;19944;-65
2022/04/19 08:38:27;;;;;;;;;;;17.30;54.50;;;;;;20761888;28;19927;-62
2022/04/19 08:48:30;;;;;;;;;;;17.40;54.60;;;;;;20761033;28;20279;-63
2022/04/19 08:58:32;;;;;;;;;;;17.60;54.20;;;;;;20761973;28;19990;-65
2022/04/19 09:08:33;;;;;;;;;;;17.80;54.00;;;;;;20736008;28;19929;-63
2022/04/19 09:18:36;;;;;;;;;;;18.70;53.60;;;;;;20736120;28;19921;-59
2022/04/19 09:28:39;;;;;;;;;;;18.40;52.20;;;;;;20727357;28;19929;-61
2022/04/19 09:38:43;;;;;;;;;;;18.60;51.80;;;;;;20708777;28;20392;-61
2022/04/19 09:48:47;;;;;;;;;;;18.60;51.70;;;;;;20675536;28;19965;-59
2022/04/19 09:58:49;;;;;;;;;;;18.90;51.40;;;;;;20702560;28;19922;-61
2022/04/19 10:08:54;;;;;;;;;;;;;;;;;;20739812;28;20295;-62
2022/04/19 10:18:55;;;;;;;;;;;19.40;50.60;;;;;;20785948;28;19921;-59
2022/04/19 10:28:58;;;;;;;;;;;19.30;51.00;;;;;;20752789;28;20011;-61
2022/04/19 10:39:15;;;;;;;;;;;20.20;48.70;;;;;;20750217;28;19921;-65
2022/04/19 10:49:19;;;;;;;;;;;;;;;;;;20751399;28;19921;-66
2022/04/19 10:59:21;;;;;;;;;;;;;;;;;;20751132;28;20284;-64
2022/04/19 11:09:26;;;;;;;;;;;;;;;;;;20750524;28;20387;-68
2022/04/19 11:19:27;;;;;;;;;;;;;;;;;;20750472;28;19944;-69
2022/04/19 11:29:29;;;;;;;;;;;;;;;;;;20749571;28;19987;-62
2022/04/19 11:49:51;;;;;;;;;;;;;;;;;;20746918;28;19921;-64
2022/04/19 11:59:54;;;;;;;;;;;;;;;;;;20748759;28;20016;-64
2022/04/19 12:09:56;;;;;;;;;;;;;;;;;;20747980;28;19925;-64
2022/04/19 12:20:03;;;;;;;;;;;21.90;42.80;;;;;;20747505;28;19983;-64
2022/04/19 12:30:12;;;;;;;;;;;20.90;44.10;;;;;;20748907;28;20387;-67
2022/04/19 12:40:14;;;;;;;;;;;21.20;46.20;;;;;;20744585;28;20144;-63
2022/04/19 12:50:16;;;;;;;;;;;20.70;47.30;;;;;;20744882;28;20012;-65
2022/04/19 13:00:18;;;;;;;;;;;20.50;48.00;;;;;;20752017;28;19921;-67
2022/04/19 13:20:41;;;;;;;;;;;21.20;45.60;;;;;;20758191;28;19943;-67
2022/04/19 13:30:44;;;;;;;;;;;20.20;47.10;;;;;;20757241;28;19928;-65
2022/04/19 13:40:46;;;;;;;;;;;20.20;47.10;;;;;;20757437;28;19941;-67
2022/04/19 13:50:47;;;;;;;;;;;20.50;44.50;;;;;;20756522;28;20066;-65
2022/04/19 14:00:49;;;;;;;;;;;21.20;43.30;;;;;;20754585;28;19928;-64
2022/04/19 14:10:51;;;;;;;;;;;21.40;43.10;;;;;;20753875;28;19944;-64
2022/04/19 14:20:53;;;;;;;;;;;21.70;42.30;;;;;;20755465;28;20415;-66
2022/04/19 14:41:15;;;;;;;;;;;20.70;42.60;;;;;;20751950;28;19922;-65
2022/04/19 15:01:38;;;;;;;;;;;;;;;;;;20735092;28;19921;-67
2022/04/19 15:11:39;;;;;;;;;;;21.20;41.80;;;;;;20750761;28;20351;-67
2022/04/19 15:21:42;;;;;;;;;;;19.20;47.70;;;;;;20749784;28;20364;-67
2022/04/19 15:31:46;;;;;;;;;;;18.40;49.40;;;;;;20749654;28;19925;-64
2022/04/19 15:41:47;;;;;;;;;;;18.00;49.00;;;;;;20748624;28;19929;-63
2022/04/19 15:51:50;;;;;;;;;;;17.70;49.30;;;;;;20748636;28;19928;-66
2022/04/19 16:01:52;;;;;;;;;;;18.00;47.80;;;;;;20748464;28;19932;-65
2022/04/19 16:11:54;;;;;;;;;;;17.90;47.40;;;;;;20746558;28;19932;-67
2022/04/19 16:32:16;;;;;;;;;;;17.60;47.70;;;;;;20749774;28;19976;-66
2022/04/19 16:42:17;;;;;;;;;;;17.30;47.30;;;;;;20762569;28;20184;-67
2022/04/19 16:52:19;;;;;;;;;;;17.10;47.20;;;;;;20762540;28;19932;-69
2022/04/19 17:02:20;;;;;;;;;;;17.20;47.30;;;;;;20761185;28;20020;-67
2022/04/19 17:12:23;;;;;;;;;;;;;;;;;;20760362;28;20390;-65
2022/04/19 17:22:26;;;;;;;;;;;;;;;;;;20759937;28;19957;-69
2022/04/19 17:32:29;;;;;;;;;;;;;;;;;;20759812;28;20303;-64
2022/04/19 17:42:32;;;;;;;;;;;;;;;;;;20789395;28;19987;-70
2022/04/19 18:02:55;;;;;;;;;;;;;;;;;;20756739;28;20363;-69
2022/04/19 18:12:57;;;;;;;;;;;;;;;;;;20758010;28;20436;-63
2022/04/19 18:33:20;;;;;;;;;;;;;;;;;;20757438;28;19990;-70
2022/04/19 18:43:21;;;;;;;;;;;;;;;;;;20758221;28;19925;-67
2022/04/19 18:53:23;;;;;;;;;;;;;;;;;;20785627;28;19921;-71
2022/04/19 19:03:25;;;;;;;;;;;13.80;49.20;;;;;;20751818;28;20023;-68
2022/04/19 19:13:27;;;;;;;;;;;;;;;;;;20754961;28;19971;-63
2022/04/19 19:23:28;;;;;;;;;;;;;;;;;;20753955;28;19976;-69
2022/04/19 19:33:30;;;;;;;;;;;;;;;;;;20752086;28;19925;-68
2022/04/19 19:43:32;;;;;;;;;;;;;;;;;;20748227;28;19928;-60
2022/04/19 19:53:33;;;;;;;;;;;;;;;;;;20779843;28;19922;-64
2022/04/19 20:03:36;;;;;;;;;;;;;;;;;;20748320;28;19921;-60
2022/04/19 20:13:39;;;;;;;;;;;;;;;;;;20748990;28;19921;-69
2022/04/19 20:23:41;;;;;;;;;;;;;;;;;;20747763;28;19968;-64
2022/04/19 20:33:44;;;;;;;;;;;;;;;;;;20747713;28;19921;-64
2022/04/19 20:43:46;;;;;;;;;;;;;;;;;;20777585;28;19968;-62
2022/04/19 20:53:48;;;;;;;;;;;;;;;;;;20745871;28;19925;-62
2022/04/19 21:03:51;;;;;;;;;;;;;;;;;;20746648;28;19921;-63
2022/04/19 21:13:53;;;;;;;;;;;11.70;63.40;;;;;;20746834;28;19921;-62
2022/04/19 21:23:55;;;;;;;;;;;;;;;;;;20787595;28;19921;-69
2022/04/19 21:33:57;;;;;;;;;;;;;;;;;;20758846;28;19968;-62
2022/04/19 21:43:59;;;;;;;;;;;;;;;;;;20789527;28;19928;-63
2022/04/19 21:54:01;;;;;;;;;;;;;;;;;;20757602;28;20380;-66
2022/04/19 22:04:03;;;;;;;;;;;10.30;70.70;;;;;;20756812;28;20387;-63
2022/04/19 22:14:05;;;;;;;;;;;10.10;73.40;;;;;;20756409;28;20003;-61
2022/04/19 22:24:06;;;;;;;;;;;9.90;74.00;;;;;;20755454;28;20310;-60
2022/04/19 22:34:08;;;;;;;;;;;9.90;74.50;;;;;;20754484;28;19976;-62
2022/04/19 22:44:09;;;;;;;;;;;9.70;74.60;;;;;;20752825;28;20055;-59
2022/04/19 22:54:11;;;;;;;;;;;9.70;75.00;;;;;;20753273;28;19922;-61
2022/04/19 23:04:13;;;;;;;;;;;9.50;74.90;;;;;;20752522;28;19921;-61
2022/04/19 23:14:14;;;;;;;;;;;9.40;75.90;;;;;;20751812;28;19925;-66
2022/04/19 23:24:16;;;;;;;;;;;9.40;76.50;;;;;;20750332;28;19928;-64
2022/04/19 23:34:18;;;;;;;;;;;9.40;77.40;;;;;;20749903;28;19921;-61
2022/04/19 23:44:21;;;;;;;;;;;9.20;77.30;;;;;;20749692;28;20386;-59
2022/04/19 23:54:22;;;;;;;;;;;9.20;77.50;;;;;;20781085;28;20389;-61
